sensor_id;sensor_type;location;lat;lon;timestamp;temperature;humidity
21318;DHT22;10818;50.830;6.524;2022-12-29T00:04:21;12.20;99.90
21318;DHT22;10818;50.830;6.524;2022-12-29T00:09:22;12.20;99.90
21318;DHT22;10818;50.830;6.524;2022-12-29T00:14:22;12.10;99.90
21318;DHT22;10818;50.830;6.524;2022-12-29T00:19:41;12.20;99.90
21318;DHT22;10818;50.830;6.524;2022-12-29T00:25:00;12.20;99.90
21318;DHT22;10818;50.830;6.524;2022-12-29T00:30:20;12.20;99.90
21318;DHT22;10818;50.830;6.524;2022-12-29T00:35:44;12.40;99.90
21318;DHT22;10818;50.830;6.524;2022-12-29T00:40:46;12.40;99.90
21318;DHT22;10818;50.830;6.524;2022-12-29T00:46:05;12.40;99.90
21318;DHT22;10818;50.830;6.524;2022-12-29T00:51:05;12.50;99.90
21318;DHT22;10818;50.830;6.524;2022-12-29T00:56:06;12.60;99.90
21318;DHT22;10818;50.830;6.524;2022-12-29T01:01:07;12.50;99.90
21318;DHT22;10818;50.830;6.524;2022-12-29T01:06:08;12.50;99.90
21318;DHT22;10818;50.830;6.524;2022-12-29T01:11:10;12.50;99.90
21318;DHT22;10818;50.830;6.524;2022-12-29T01:16:11;12.50;99.90
21318;DHT22;10818;50.830;6.524;2022-12-29T01:21:11;12.50;99.90
21318;DHT22;10818;50.830;6.524;2022-12-29T01:26:13;12.60;99.90
21318;DHT22;10818;50.830;6.524;2022-12-29T01:31:14;12.60;99.90
21318;DHT22;10818;50.830;6.524;2022-12-29T01:36:16;12.50;99.90
21318;DHT22;10818;50.830;6.524;2022-12-29T01:41:17;12.60;99.90
21318;DHT22;10818;50.830;6.524;2022-12-29T01:46:30;12.40;99.90
21318;DHT22;10818;50.830;6.524;2022-12-29T01:51:32;12.40;99.90
21318;DHT22;10818;50.830;6.524;2022-12-29T01:56:33;12.50;99.90
21318;DHT22;10818;50.830;6.524;2022-12-29T02:01:34;12.30;99.90
21318;DHT22;10818;50.830;6.524;2022-12-29T02:06:36;12.40;99.90
21318;DHT22;10818;50.830;6.524;2022-12-29T02:11:38;12.40;99.90
21318;DHT22;10818;50.830;6.524;2022-12-29T02:16:46;12.50;99.90
21318;DHT22;10818;50.830;6.524;2022-12-29T02:22:07;12.60;99.90
21318;DHT22;10818;50.830;6.524;2022-12-29T02:32:18;12.60;99.90
21318;DHT22;10818;50.830;6.524;2022-12-29T02:37:37;12.70;99.90
21318;DHT22;10818;50.830;6.524;2022-12-29T02:52:48;12.70;99.90
21318;DHT22;10818;50.830;6.524;2022-12-29T02:58:02;12.60;99.90
21318;DHT22;10818;50.830;6.524;2022-12-29T03:13:18;12.80;99.90
21318;DHT22;10818;50.830;6.524;2022-12-29T03:18:48;12.60;99.90
21318;DHT22;10818;50.830;6.524;2022-12-29T03:23:51;12.60;99.90
21318;DHT22;10818;50.830;6.524;2022-12-29T03:28:52;12.60;99.90
21318;DHT22;10818;50.830;6.524;2022-12-29T03:33:53;12.60;99.90
21318;DHT22;10818;50.830;6.524;2022-12-29T03:38:59;12.70;99.90
21318;DHT22;10818;50.830;6.524;2022-12-29T03:44:01;12.60;99.90
21318;DHT22;10818;50.830;6.524;2022-12-29T03:49:02;12.40;99.90
21318;DHT22;10818;50.830;6.524;2022-12-29T03:54:02;12.40;99.90
21318;DHT22;10818;50.830;6.524;2022-12-29T03:59:03;12.40;99.90
21318;DHT22;10818;50.830;6.524;2022-12-29T04:04:03;12.30;99.90
21318;DHT22;10818;50.830;6.524;2022-12-29T04:09:04;12.30;99.90
21318;DHT22;10818;50.830;6.524;2022-12-29T04:14:04;12.20;99.90
21318;DHT22;10818;50.830;6.524;2022-12-29T04:19:05;12.10;99.90
21318;DHT22;10818;50.830;6.524;2022-12-29T04:24:06;12.10;99.90
21318;DHT22;10818;50.830;6.524;2022-12-29T04:29:07;12.10;99.90
21318;DHT22;10818;50.830;6.524;2022-12-29T04:34:07;12.30;99.90
21318;DHT22;10818;50.830;6.524;2022-12-29T04:39:08;12.40;99.90
21318;DHT22;10818;50.830;6.524;2022-12-29T04:44:08;12.40;99.90
21318;DHT22;10818;50.830;6.524;2022-12-29T04:49:08;12.40;99.90
21318;DHT22;10818;50.830;6.524;2022-12-29T04:54:09;12.30;99.90
21318;DHT22;10818;50.830;6.524;2022-12-29T04:59:09;12.30;99.90
21318;DHT22;10818;50.830;6.524;2022-12-29T05:04:10;12.30;99.90
21318;DHT22;10818;50.830;6.524;2022-12-29T05:09:10;12.20;99.90
21318;DHT22;10818;50.830;6.524;2022-12-29T05:14:11;12.10;99.90
21318;DHT22;10818;50.830;6.524;2022-12-29T05:19:11;12.20;99.90
21318;DHT22;10818;50.830;6.524;2022-12-29T05:24:12;12.10;99.90
21318;DHT22;10818;50.830;6.524;2022-12-29T05:29:12;12.20;99.90
21318;DHT22;10818;50.830;6.524;2022-12-29T05:34:13;12.20;99.90
21318;DHT22;10818;50.830;6.524;2022-12-29T05:39:13;12.10;99.90
21318;DHT22;10818;50.830;6.524;2022-12-29T05:44:14;12.20;99.90
21318;DHT22;10818;50.830;6.524;2022-12-29T05:49:14;12.20;99.90
21318;DHT22;10818;50.830;6.524;2022-12-29T05:54:15;12.10;99.90
21318;DHT22;10818;50.830;6.524;2022-12-29T05:59:15;12.10;99.90
21318;DHT22;10818;50.830;6.524;2022-12-29T06:04:15;12.00;99.90
21318;DHT22;10818;50.830;6.524;2022-12-29T06:09:16;12.00;99.90
21318;DHT22;10818;50.830;6.524;2022-12-29T06:14:16;12.00;99.90
21318;DHT22;10818;50.830;6.524;2022-12-29T06:19:17;12.00;99.90
21318;DHT22;10818;50.830;6.524;2022-12-29T06:24:17;12.10;99.90
21318;DHT22;10818;50.830;6.524;2022-12-29T06:29:18;12.20;99.90
21318;DHT22;10818;50.830;6.524;2022-12-29T06:34:18;12.20;99.90
21318;DHT22;10818;50.830;6.524;2022-12-29T06:39:19;12.20;99.90
21318;DHT22;10818;50.830;6.524;2022-12-29T06:44:19;12.30;99.90
21318;DHT22;10818;50.830;6.524;2022-12-29T06:49:20;12.30;99.90
21318;DHT22;10818;50.830;6.524;2022-12-29T06:54:20;12.30;99.90
21318;DHT22;10818;50.830;6.524;2022-12-29T06:59:21;12.20;99.90
21318;DHT22;10818;50.830;6.524;2022-12-29T07:04:21;12.10;99.90
21318;DHT22;10818;50.830;6.524;2022-12-29T07:09:22;12.10;99.90
21318;DHT22;10818;50.830;6.524;2022-12-29T07:14:22;12.00;99.90
21318;DHT22;10818;50.830;6.524;2022-12-29T07:19:23;12.00;99.90
21318;DHT22;10818;50.830;6.524;2022-12-29T07:24:23;11.90;99.90
21318;DHT22;10818;50.830;6.524;2022-12-29T07:29:25;11.90;99.90
21318;DHT22;10818;50.830;6.524;2022-12-29T07:34:26;11.80;99.90
21318;DHT22;10818;50.830;6.524;2022-12-29T07:39:26;11.60;99.90
21318;DHT22;10818;50.830;6.524;2022-12-29T07:44:27;11.70;99.90
21318;DHT22;10818;50.830;6.524;2022-12-29T07:49:27;11.70;99.90
21318;DHT22;10818;50.830;6.524;2022-12-29T07:54:28;11.70;99.90
21318;DHT22;10818;50.830;6.524;2022-12-29T07:59:28;11.80;99.90
21318;DHT22;10818;50.830;6.524;2022-12-29T08:04:28;11.70;99.90
21318;DHT22;10818;50.830;6.524;2022-12-29T08:09:29;11.70;99.90
21318;DHT22;10818;50.830;6.524;2022-12-29T08:14:29;11.70;99.90
21318;DHT22;10818;50.830;6.524;2022-12-29T08:19:30;11.70;99.90
21318;DHT22;10818;50.830;6.524;2022-12-29T08:24:30;11.60;99.90
21318;DHT22;10818;50.830;6.524;2022-12-29T08:29:31;11.60;99.90
21318;DHT22;10818;50.830;6.524;2022-12-29T08:34:31;11.60;99.90
21318;DHT22;10818;50.830;6.524;2022-12-29T08:39:32;11.60;99.90
21318;DHT22;10818;50.830;6.524;2022-12-29T08:44:32;11.70;99.90
21318;DHT22;10818;50.830;6.524;2022-12-29T08:49:33;12.70;99.90
21318;DHT22;10818;50.830;6.524;2022-12-29T08:54:33;13.50;99.90
21318;DHT22;10818;50.830;6.524;2022-12-29T08:59:34;14.30;99.90
21318;DHT22;10818;50.830;6.524;2022-12-29T09:04:35;14.70;99.90
21318;DHT22;10818;50.830;6.524;2022-12-29T09:09:35;15.80;99.90
21318;DHT22;10818;50.830;6.524;2022-12-29T09:14:36;16.90;99.90
21318;DHT22;10818;50.830;6.524;2022-12-29T09:19:36;17.80;99.90
21318;DHT22;10818;50.830;6.524;2022-12-29T09:24:37;18.20;99.90
21318;DHT22;10818;50.830;6.524;2022-12-29T09:29:37;18.90;99.90
21318;DHT22;10818;50.830;6.524;2022-12-29T09:34:38;18.10;99.90
21318;DHT22;10818;50.830;6.524;2022-12-29T09:39:39;17.50;99.90
21318;DHT22;10818;50.830;6.524;2022-12-29T09:49:52;14.70;99.90
21318;DHT22;10818;50.830;6.524;2022-12-29T10:00:16;13.40;99.90
21318;DHT22;10818;50.830;6.524;2022-12-29T10:05:37;13.20;99.90
21318;DHT22;10818;50.830;6.524;2022-12-29T10:10:40;13.10;99.90
21318;DHT22;10818;50.830;6.524;2022-12-29T10:15:49;13.00;99.90
21318;DHT22;10818;50.830;6.524;2022-12-29T10:21:01;13.10;99.90
21318;DHT22;10818;50.830;6.524;2022-12-29T10:26:04;13.10;99.90
21318;DHT22;10818;50.830;6.524;2022-12-29T10:31:42;13.00;99.90
21318;DHT22;10818;50.830;6.524;2022-12-29T10:36:39;12.90;99.90
21318;DHT22;10818;50.830;6.524;2022-12-29T10:41:41;12.90;99.90
21318;DHT22;10818;50.830;6.524;2022-12-29T10:46:44;13.00;99.90
21318;DHT22;10818;50.830;6.524;2022-12-29T10:51:48;13.10;99.90
21318;DHT22;10818;50.830;6.524;2022-12-29T10:56:53;12.90;99.90
21318;DHT22;10818;50.830;6.524;2022-12-29T11:02:14;13.00;99.90
21318;DHT22;10818;50.830;6.524;2022-12-29T11:07:18;13.00;99.90
21318;DHT22;10818;50.830;6.524;2022-12-29T11:12:26;13.00;99.90
21318;DHT22;10818;50.830;6.524;2022-12-29T11:17:27;13.10;99.90
21318;DHT22;10818;50.830;6.524;2022-12-29T11:22:28;13.10;99.90
21318;DHT22;10818;50.830;6.524;2022-12-29T11:27:28;13.20;99.90
21318;DHT22;10818;50.830;6.524;2022-12-29T11:32:29;13.60;99.90
21318;DHT22;10818;50.830;6.524;2022-12-29T11:37:36;13.70;99.90
21318;DHT22;10818;50.830;6.524;2022-12-29T11:42:48;13.50;99.90
21318;DHT22;10818;50.830;6.524;2022-12-29T11:58:18;13.40;99.90
21318;DHT22;10818;50.830;6.524;2022-12-29T12:03:19;13.40;99.90
21318;DHT22;10818;50.830;6.524;2022-12-29T12:08:26;13.40;99.90
21318;DHT22;10818;50.830;6.524;2022-12-29T12:13:33;13.30;99.90
21318;DHT22;10818;50.830;6.524;2022-12-29T12:18:40;13.00;99.90
21318;DHT22;10818;50.830;6.524;2022-12-29T12:23:53;12.90;99.90
21318;DHT22;10818;50.830;6.524;2022-12-29T12:33:59;12.90;99.90
21318;DHT22;10818;50.830;6.524;2022-12-29T12:39:11;12.90;99.90
21318;DHT22;10818;50.830;6.524;2022-12-29T12:44:17;13.00;99.90
21318;DHT22;10818;50.830;6.524;2022-12-29T12:59:49;12.80;99.90
21318;DHT22;10818;50.830;6.524;2022-12-29T13:04:58;12.70;99.90
21318;DHT22;10818;50.830;6.524;2022-12-29T13:20:30;12.60;99.90
21318;DHT22;10818;50.830;6.524;2022-12-29T13:30:34;12.40;99.90
21318;DHT22;10818;50.830;6.524;2022-12-29T13:35:57;12.40;99.90
21318;DHT22;10818;50.830;6.524;2022-12-29T13:41:07;12.40;99.90
21318;DHT22;10818;50.830;6.524;2022-12-29T13:46:10;12.40;99.90
21318;DHT22;10818;50.830;6.524;2022-12-29T13:51:13;12.20;99.90
21318;DHT22;10818;50.830;6.524;2022-12-29T13:56:19;12.10;99.90
21318;DHT22;10818;50.830;6.524;2022-12-29T14:01:22;12.10;99.90
21318;DHT22;10818;50.830;6.524;2022-12-29T14:06:25;12.10;99.90
21318;DHT22;10818;50.830;6.524;2022-12-29T14:11:36;11.70;99.90
21318;DHT22;10818;50.830;6.524;2022-12-29T14:16:37;11.60;99.90
21318;DHT22;10818;50.830;6.524;2022-12-29T14:21:37;11.60;99.90
21318;DHT22;10818;50.830;6.524;2022-12-29T14:26:38;11.60;99.90
21318;DHT22;10818;50.830;6.524;2022-12-29T14:31:38;11.60;99.90
21318;DHT22;10818;50.830;6.524;2022-12-29T14:41:41;11.40;99.90
21318;DHT22;10818;50.830;6.524;2022-12-29T14:46:43;11.40;99.90
21318;DHT22;10818;50.830;6.524;2022-12-29T14:51:43;11.30;99.90
21318;DHT22;10818;50.830;6.524;2022-12-29T14:56:44;11.20;99.90
21318;DHT22;10818;50.830;6.524;2022-12-29T15:01:46;11.20;99.90
21318;DHT22;10818;50.830;6.524;2022-12-29T15:06:48;10.90;99.90
21318;DHT22;10818;50.830;6.524;2022-12-29T15:11:53;10.90;99.90
21318;DHT22;10818;50.830;6.524;2022-12-29T15:16:54;10.80;99.90
21318;DHT22;10818;50.830;6.524;2022-12-29T15:21:55;10.60;99.90
21318;DHT22;10818;50.830;6.524;2022-12-29T15:26:56;10.50;99.90
21318;DHT22;10818;50.830;6.524;2022-12-29T15:31:58;10.40;99.90
21318;DHT22;10818;50.830;6.524;2022-12-29T15:36:59;10.40;99.90
21318;DHT22;10818;50.830;6.524;2022-12-29T15:42:00;10.30;99.90
21318;DHT22;10818;50.830;6.524;2022-12-29T15:47:04;10.20;99.90
21318;DHT22;10818;50.830;6.524;2022-12-29T15:52:06;10.10;99.90
21318;DHT22;10818;50.830;6.524;2022-12-29T15:57:10;10.10;99.90
21318;DHT22;10818;50.830;6.524;2022-12-29T16:02:16;9.90;99.90
21318;DHT22;10818;50.830;6.524;2022-12-29T16:07:31;9.80;99.90
21318;DHT22;10818;50.830;6.524;2022-12-29T16:12:33;9.80;99.90
21318;DHT22;10818;50.830;6.524;2022-12-29T16:17:36;9.80;99.90
21318;DHT22;10818;50.830;6.524;2022-12-29T16:22:41;9.70;99.90
21318;DHT22;10818;50.830;6.524;2022-12-29T16:27:44;9.60;99.90
21318;DHT22;10818;50.830;6.524;2022-12-29T16:32:48;9.60;99.90
21318;DHT22;10818;50.830;6.524;2022-12-29T16:43:28;9.40;99.90
21318;DHT22;10818;50.830;6.524;2022-12-29T16:48:35;9.40;99.90
21318;DHT22;10818;50.830;6.524;2022-12-29T16:53:37;9.30;99.90
21318;DHT22;10818;50.830;6.524;2022-12-29T16:58:38;9.30;99.90
21318;DHT22;10818;50.830;6.524;2022-12-29T17:03:39;9.30;99.90
21318;DHT22;10818;50.830;6.524;2022-12-29T17:08:41;9.30;99.90
21318;DHT22;10818;50.830;6.524;2022-12-29T17:13:41;9.30;99.90
21318;DHT22;10818;50.830;6.524;2022-12-29T17:18:42;9.30;99.90
21318;DHT22;10818;50.830;6.524;2022-12-29T17:23:42;9.20;99.90
21318;DHT22;10818;50.830;6.524;2022-12-29T17:28:43;9.20;99.90
21318;DHT22;10818;50.830;6.524;2022-12-29T17:33:44;9.10;99.90
21318;DHT22;10818;50.830;6.524;2022-12-29T17:38:45;9.20;99.90
21318;DHT22;10818;50.830;6.524;2022-12-29T17:43:46;9.00;99.90
21318;DHT22;10818;50.830;6.524;2022-12-29T17:48:46;9.20;99.90
21318;DHT22;10818;50.830;6.524;2022-12-29T17:53:47;9.20;99.90
21318;DHT22;10818;50.830;6.524;2022-12-29T17:58:48;9.40;99.90
21318;DHT22;10818;50.830;6.524;2022-12-29T18:03:49;9.50;99.90
21318;DHT22;10818;50.830;6.524;2022-12-29T18:08:50;9.60;99.90
21318;DHT22;10818;50.830;6.524;2022-12-29T18:13:51;9.70;99.90
21318;DHT22;10818;50.830;6.524;2022-12-29T18:18:52;9.60;99.90
21318;DHT22;10818;50.830;6.524;2022-12-29T18:23:52;9.40;99.90
21318;DHT22;10818;50.830;6.524;2022-12-29T18:28:53;9.00;99.90
21318;DHT22;10818;50.830;6.524;2022-12-29T18:33:55;8.80;99.90
21318;DHT22;10818;50.830;6.524;2022-12-29T18:38:55;8.70;99.90
21318;DHT22;10818;50.830;6.524;2022-12-29T18:43:56;8.60;99.90
21318;DHT22;10818;50.830;6.524;2022-12-29T18:48:57;8.70;99.90
21318;DHT22;10818;50.830;6.524;2022-12-29T18:53:59;8.80;99.90
21318;DHT22;10818;50.830;6.524;2022-12-29T18:58:59;8.80;99.90
21318;DHT22;10818;50.830;6.524;2022-12-29T19:03:59;8.60;99.90
21318;DHT22;10818;50.830;6.524;2022-12-29T19:09:00;8.40;99.90
21318;DHT22;10818;50.830;6.524;2022-12-29T19:14:00;8.30;99.90
21318;DHT22;10818;50.830;6.524;2022-12-29T19:19:01;8.20;99.90
21318;DHT22;10818;50.830;6.524;2022-12-29T19:24:01;8.10;99.90
21318;DHT22;10818;50.830;6.524;2022-12-29T19:29:02;8.10;99.90
21318;DHT22;10818;50.830;6.524;2022-12-29T19:34:03;7.90;99.90
21318;DHT22;10818;50.830;6.524;2022-12-29T19:39:03;7.80;99.90
21318;DHT22;10818;50.830;6.524;2022-12-29T19:44:03;7.80;99.90
21318;DHT22;10818;50.830;6.524;2022-12-29T19:49:04;7.70;99.90
21318;DHT22;10818;50.830;6.524;2022-12-29T19:54:04;7.60;99.90
21318;DHT22;10818;50.830;6.524;2022-12-29T19:59:05;7.60;99.90
21318;DHT22;10818;50.830;6.524;2022-12-29T20:04:05;7.60;99.90
21318;DHT22;10818;50.830;6.524;2022-12-29T20:09:06;7.70;99.90
21318;DHT22;10818;50.830;6.524;2022-12-29T20:14:06;7.70;99.90
21318;DHT22;10818;50.830;6.524;2022-12-29T20:19:07;7.70;99.90
21318;DHT22;10818;50.830;6.524;2022-12-29T20:24:07;7.60;99.90
21318;DHT22;10818;50.830;6.524;2022-12-29T20:29:08;7.60;99.90
21318;DHT22;10818;50.830;6.524;2022-12-29T20:34:09;7.70;99.90
21318;DHT22;10818;50.830;6.524;2022-12-29T20:39:11;7.70;99.90
21318;DHT22;10818;50.830;6.524;2022-12-29T20:44:12;7.60;99.90
21318;DHT22;10818;50.830;6.524;2022-12-29T20:49:15;7.60;99.90
21318;DHT22;10818;50.830;6.524;2022-12-29T20:54:15;7.50;99.90
21318;DHT22;10818;50.830;6.524;2022-12-29T20:59:16;7.50;99.90
21318;DHT22;10818;50.830;6.524;2022-12-29T21:04:16;7.60;99.90
21318;DHT22;10818;50.830;6.524;2022-12-29T21:09:17;7.60;99.90
21318;DHT22;10818;50.830;6.524;2022-12-29T21:14:17;7.60;99.90
21318;DHT22;10818;50.830;6.524;2022-12-29T21:19:17;7.60;99.90
21318;DHT22;10818;50.830;6.524;2022-12-29T21:24:18;7.60;99.90
21318;DHT22;10818;50.830;6.524;2022-12-29T21:29:19;7.70;99.90
21318;DHT22;10818;50.830;6.524;2022-12-29T21:34:19;7.70;99.90
21318;DHT22;10818;50.830;6.524;2022-12-29T21:39:20;7.70;99.90
21318;DHT22;10818;50.830;6.524;2022-12-29T21:44:20;7.60;99.90
21318;DHT22;10818;50.830;6.524;2022-12-29T21:49:39;7.60;99.90
21318;DHT22;10818;50.830;6.524;2022-12-29T21:54:40;7.60;99.90
21318;DHT22;10818;50.830;6.524;2022-12-29T21:59:59;7.60;99.90
21318;DHT22;10818;50.830;6.524;2022-12-29T22:05:18;7.60;99.90
21318;DHT22;10818;50.830;6.524;2022-12-29T22:10:38;7.70;99.90
21318;DHT22;10818;50.830;6.524;2022-12-29T22:15:57;7.70;99.90
21318;DHT22;10818;50.830;6.524;2022-12-29T22:20:58;7.70;99.90
21318;DHT22;10818;50.830;6.524;2022-12-29T22:26:05;7.80;99.90
21318;DHT22;10818;50.830;6.524;2022-12-29T22:31:16;7.70;99.90
21318;DHT22;10818;50.830;6.524;2022-12-29T22:36:19;7.70;99.90
21318;DHT22;10818;50.830;6.524;2022-12-29T22:41:20;7.80;99.90
21318;DHT22;10818;50.830;6.524;2022-12-29T22:46:20;7.70;99.90
21318;DHT22;10818;50.830;6.524;2022-12-29T22:51:21;7.80;99.90
21318;DHT22;10818;50.830;6.524;2022-12-29T22:56:21;7.70;99.90
21318;DHT22;10818;50.830;6.524;2022-12-29T23:01:22;7.80;99.90
21318;DHT22;10818;50.830;6.524;2022-12-29T23:06:22;7.80;99.90
21318;DHT22;10818;50.830;6.524;2022-12-29T23:11:23;7.80;99.90
21318;DHT22;10818;50.830;6.524;2022-12-29T23:16:24;7.80;99.90
21318;DHT22;10818;50.830;6.524;2022-12-29T23:21:25;7.80;99.90
21318;DHT22;10818;50.830;6.524;2022-12-29T23:26:26;7.80;99.90
21318;DHT22;10818;50.830;6.524;2022-12-29T23:31:27;7.80;99.90
21318;DHT22;10818;50.830;6.524;2022-12-29T23:36:28;7.80;99.90
21318;DHT22;10818;50.830;6.524;2022-12-29T23:41:29;7.70;99.90
21318;DHT22;10818;50.830;6.524;2022-12-29T23:46:29;7.70;99.90
21318;DHT22;10818;50.830;6.524;2022-12-29T23:51:30;7.70;99.90
21318;DHT22;10818;50.830;6.524;2022-12-29T23:56:30;7.70;99.90
